sensor_id;sensor_type;location;lat;lon;timestamp;temperature;humidity
2625;DHT22;1322;53.256;10.386;2024-02-21T00:00:52;10.20;99.90
2625;DHT22;1322;53.256;10.386;2024-02-21T00:03:18;10.30;99.90
2625;DHT22;1322;53.256;10.386;2024-02-21T00:05:44;10.40;99.90
2625;DHT22;1322;53.256;10.386;2024-02-21T00:08:09;10.50;99.90
2625;DHT22;1322;53.256;10.386;2024-02-21T00:10:35;10.50;99.90
2625;DHT22;1322;53.256;10.386;2024-02-21T00:13:01;10.50;99.90
2625;DHT22;1322;53.256;10.386;2024-02-21T00:15:27;10.30;99.90
2625;DHT22;1322;53.256;10.386;2024-02-21T00:17:52;10.30;99.90
2625;DHT22;1322;53.256;10.386;2024-02-21T00:20:18;10.30;99.90
2625;DHT22;1322;53.256;10.386;2024-02-21T00:22:45;10.20;99.90
2625;DHT22;1322;53.256;10.386;2024-02-21T00:25:11;10.20;99.90
2625;DHT22;1322;53.256;10.386;2024-02-21T00:27:37;10.20;99.90
2625;DHT22;1322;53.256;10.386;2024-02-21T00:30:03;10.20;99.90
2625;DHT22;1322;53.256;10.386;2024-02-21T00:32:28;10.20;99.90
2625;DHT22;1322;53.256;10.386;2024-02-21T00:34:54;10.30;99.90
2625;DHT22;1322;53.256;10.386;2024-02-21T00:37:20;10.20;99.90
2625;DHT22;1322;53.256;10.386;2024-02-21T00:39:45;10.20;99.90
2625;DHT22;1322;53.256;10.386;2024-02-21T00:42:11;10.20;99.90
2625;DHT22;1322;53.256;10.386;2024-02-21T00:44:37;10.20;99.90
2625;DHT22;1322;53.256;10.386;2024-02-21T00:47:02;10.20;99.90
2625;DHT22;1322;53.256;10.386;2024-02-21T00:49:28;10.20;99.90
2625;DHT22;1322;53.256;10.386;2024-02-21T00:51:53;10.20;99.90
2625;DHT22;1322;53.256;10.386;2024-02-21T00:54:19;10.20;99.90
2625;DHT22;1322;53.256;10.386;2024-02-21T00:56:45;10.30;99.90
2625;DHT22;1322;53.256;10.386;2024-02-21T00:59:10;10.40;99.90
2625;DHT22;1322;53.256;10.386;2024-02-21T01:01:36;10.30;99.90
2625;DHT22;1322;53.256;10.386;2024-02-21T01:04:01;10.20;99.90
2625;DHT22;1322;53.256;10.386;2024-02-21T01:06:27;10.20;99.90
2625;DHT22;1322;53.256;10.386;2024-02-21T01:08:53;10.10;99.90
2625;DHT22;1322;53.256;10.386;2024-02-21T01:11:18;10.10;99.90
2625;DHT22;1322;53.256;10.386;2024-02-21T01:13:44;10.20;99.90
2625;DHT22;1322;53.256;10.386;2024-02-21T01:16:10;10.30;99.90
2625;DHT22;1322;53.256;10.386;2024-02-21T01:18:39;10.20;99.90
2625;DHT22;1322;53.256;10.386;2024-02-21T01:21:05;10.20;99.90
2625;DHT22;1322;53.256;10.386;2024-02-21T01:23:37;10.20;99.90
2625;DHT22;1322;53.256;10.386;2024-02-21T01:26:03;10.20;99.90
2625;DHT22;1322;53.256;10.386;2024-02-21T01:28:29;10.20;99.90
2625;DHT22;1322;53.256;10.386;2024-02-21T01:30:56;10.20;99.90
2625;DHT22;1322;53.256;10.386;2024-02-21T01:33:22;10.30;99.90
2625;DHT22;1322;53.256;10.386;2024-02-21T01:35:47;10.40;99.90
2625;DHT22;1322;53.256;10.386;2024-02-21T01:38:13;10.40;99.90
2625;DHT22;1322;53.256;10.386;2024-02-21T01:40:38;10.50;99.90
2625;DHT22;1322;53.256;10.386;2024-02-21T01:43:15;10.50;99.90
2625;DHT22;1322;53.256;10.386;2024-02-21T01:45:41;10.40;99.90
2625;DHT22;1322;53.256;10.386;2024-02-21T01:48:07;10.40;99.90
2625;DHT22;1322;53.256;10.386;2024-02-21T01:50:33;10.40;99.90
2625;DHT22;1322;53.256;10.386;2024-02-21T01:52:59;10.40;99.90
2625;DHT22;1322;53.256;10.386;2024-02-21T01:55:25;10.40;99.90
2625;DHT22;1322;53.256;10.386;2024-02-21T01:57:51;10.50;99.90
2625;DHT22;1322;53.256;10.386;2024-02-21T02:00:17;10.40;99.90
2625;DHT22;1322;53.256;10.386;2024-02-21T02:02:44;10.50;99.90
2625;DHT22;1322;53.256;10.386;2024-02-21T02:05:11;10.40;99.90
2625;DHT22;1322;53.256;10.386;2024-02-21T02:07:37;10.40;99.90
2625;DHT22;1322;53.256;10.386;2024-02-21T02:10:03;10.40;99.90
2625;DHT22;1322;53.256;10.386;2024-02-21T02:12:29;10.30;99.90
2625;DHT22;1322;53.256;10.386;2024-02-21T02:15:02;10.20;99.90
2625;DHT22;1322;53.256;10.386;2024-02-21T02:17:30;10.10;99.90
2625;DHT22;1322;53.256;10.386;2024-02-21T02:19:56;10.20;99.90
2625;DHT22;1322;53.256;10.386;2024-02-21T02:22:32;10.20;99.90
2625;DHT22;1322;53.256;10.386;2024-02-21T02:24:59;10.20;99.90
2625;DHT22;1322;53.256;10.386;2024-02-21T02:27:25;10.10;99.90
2625;DHT22;1322;53.256;10.386;2024-02-21T02:29:50;10.20;99.90
2625;DHT22;1322;53.256;10.386;2024-02-21T02:32:17;10.10;99.90
2625;DHT22;1322;53.256;10.386;2024-02-21T02:34:43;10.20;99.90
2625;DHT22;1322;53.256;10.386;2024-02-21T02:37:08;10.30;99.90
2625;DHT22;1322;53.256;10.386;2024-02-21T02:39:34;10.30;99.90
2625;DHT22;1322;53.256;10.386;2024-02-21T02:42:01;10.30;99.90
2625;DHT22;1322;53.256;10.386;2024-02-21T02:44:26;10.30;99.90
2625;DHT22;1322;53.256;10.386;2024-02-21T02:46:52;10.30;99.90
2625;DHT22;1322;53.256;10.386;2024-02-21T02:49:18;10.20;99.90
2625;DHT22;1322;53.256;10.386;2024-02-21T02:51:44;10.30;99.90
2625;DHT22;1322;53.256;10.386;2024-02-21T02:54:10;10.30;99.90
2625;DHT22;1322;53.256;10.386;2024-02-21T02:56:36;10.20;99.90
2625;DHT22;1322;53.256;10.386;2024-02-21T02:59:02;10.30;99.90
2625;DHT22;1322;53.256;10.386;2024-02-21T03:01:28;10.30;99.90
2625;DHT22;1322;53.256;10.386;2024-02-21T03:03:54;10.40;99.90
2625;DHT22;1322;53.256;10.386;2024-02-21T03:06:20;10.30;99.90
2625;DHT22;1322;53.256;10.386;2024-02-21T03:08:45;10.40;99.90
2625;DHT22;1322;53.256;10.386;2024-02-21T03:11:11;10.40;99.90
2625;DHT22;1322;53.256;10.386;2024-02-21T03:13:37;10.40;99.90
2625;DHT22;1322;53.256;10.386;2024-02-21T03:16:03;10.40;99.90
2625;DHT22;1322;53.256;10.386;2024-02-21T03:18:28;10.30;99.90
2625;DHT22;1322;53.256;10.386;2024-02-21T03:20:54;10.40;99.90
2625;DHT22;1322;53.256;10.386;2024-02-21T03:23:20;10.40;99.90
2625;DHT22;1322;53.256;10.386;2024-02-21T03:25:45;10.30;99.90
2625;DHT22;1322;53.256;10.386;2024-02-21T03:28:11;10.30;99.90
2625;DHT22;1322;53.256;10.386;2024-02-21T03:30:40;10.30;99.90
2625;DHT22;1322;53.256;10.386;2024-02-21T03:33:06;10.40;99.90
2625;DHT22;1322;53.256;10.386;2024-02-21T03:35:32;10.40;99.90
2625;DHT22;1322;53.256;10.386;2024-02-21T03:37:58;10.30;99.90
2625;DHT22;1322;53.256;10.386;2024-02-21T03:40:23;10.30;99.90
2625;DHT22;1322;53.256;10.386;2024-02-21T03:42:49;10.30;99.90
2625;DHT22;1322;53.256;10.386;2024-02-21T03:45:14;10.20;99.90
2625;DHT22;1322;53.256;10.386;2024-02-21T03:47:40;10.20;99.90
2625;DHT22;1322;53.256;10.386;2024-02-21T03:50:06;10.30;99.90
2625;DHT22;1322;53.256;10.386;2024-02-21T03:52:32;10.30;99.90
2625;DHT22;1322;53.256;10.386;2024-02-21T03:54:58;10.30;99.90
2625;DHT22;1322;53.256;10.386;2024-02-21T03:57:23;10.40;99.90
2625;DHT22;1322;53.256;10.386;2024-02-21T03:59:52;10.40;99.90
2625;DHT22;1322;53.256;10.386;2024-02-21T04:02:17;10.50;99.90
2625;DHT22;1322;53.256;10.386;2024-02-21T04:04:44;10.60;99.90
2625;DHT22;1322;53.256;10.386;2024-02-21T04:07:14;10.50;99.90
2625;DHT22;1322;53.256;10.386;2024-02-21T04:09:40;10.60;99.90
2625;DHT22;1322;53.256;10.386;2024-02-21T04:12:07;10.50;99.90
2625;DHT22;1322;53.256;10.386;2024-02-21T04:14:33;10.60;99.90
2625;DHT22;1322;53.256;10.386;2024-02-21T04:17:00;10.50;99.90
2625;DHT22;1322;53.256;10.386;2024-02-21T04:19:25;10.50;99.90
2625;DHT22;1322;53.256;10.386;2024-02-21T04:21:51;10.50;99.90
2625;DHT22;1322;53.256;10.386;2024-02-21T04:24:16;10.50;99.90
2625;DHT22;1322;53.256;10.386;2024-02-21T04:26:42;10.50;99.90
2625;DHT22;1322;53.256;10.386;2024-02-21T04:29:09;10.50;99.90
2625;DHT22;1322;53.256;10.386;2024-02-21T04:31:34;10.50;99.90
2625;DHT22;1322;53.256;10.386;2024-02-21T04:34:00;10.50;99.90
2625;DHT22;1322;53.256;10.386;2024-02-21T04:36:26;10.50;99.90
2625;DHT22;1322;53.256;10.386;2024-02-21T04:38:51;10.60;99.90
2625;DHT22;1322;53.256;10.386;2024-02-21T04:41:17;10.50;99.90
2625;DHT22;1322;53.256;10.386;2024-02-21T04:43:43;10.60;99.90
2625;DHT22;1322;53.256;10.386;2024-02-21T04:46:08;10.70;99.90
2625;DHT22;1322;53.256;10.386;2024-02-21T04:48:35;10.60;99.90
2625;DHT22;1322;53.256;10.386;2024-02-21T04:51:00;10.60;99.90
2625;DHT22;1322;53.256;10.386;2024-02-21T04:53:26;10.50;99.90
2625;DHT22;1322;53.256;10.386;2024-02-21T04:55:52;10.50;99.90
2625;DHT22;1322;53.256;10.386;2024-02-21T04:58:17;10.40;99.90
2625;DHT22;1322;53.256;10.386;2024-02-21T05:00:43;10.40;99.90
2625;DHT22;1322;53.256;10.386;2024-02-21T05:03:08;10.50;99.90
2625;DHT22;1322;53.256;10.386;2024-02-21T05:05:34;10.50;99.90
2625;DHT22;1322;53.256;10.386;2024-02-21T05:08:00;10.60;99.90
2625;DHT22;1322;53.256;10.386;2024-02-21T05:10:26;10.50;99.90
2625;DHT22;1322;53.256;10.386;2024-02-21T05:12:51;10.40;99.90
2625;DHT22;1322;53.256;10.386;2024-02-21T05:15:17;10.40;99.90
2625;DHT22;1322;53.256;10.386;2024-02-21T05:17:43;10.40;99.90
2625;DHT22;1322;53.256;10.386;2024-02-21T05:20:09;10.40;99.90
2625;DHT22;1322;53.256;10.386;2024-02-21T05:22:35;10.30;99.90
2625;DHT22;1322;53.256;10.386;2024-02-21T05:25:00;10.40;99.90
2625;DHT22;1322;53.256;10.386;2024-02-21T05:27:26;10.40;99.90
2625;DHT22;1322;53.256;10.386;2024-02-21T05:29:53;10.40;99.90
2625;DHT22;1322;53.256;10.386;2024-02-21T05:32:19;10.30;99.90
2625;DHT22;1322;53.256;10.386;2024-02-21T05:34:51;10.30;99.90
2625;DHT22;1322;53.256;10.386;2024-02-21T05:37:16;10.30;99.90
2625;DHT22;1322;53.256;10.386;2024-02-21T05:39:42;10.30;99.90
2625;DHT22;1322;53.256;10.386;2024-02-21T05:42:07;10.30;99.90
2625;DHT22;1322;53.256;10.386;2024-02-21T05:44:33;10.30;99.90
2625;DHT22;1322;53.256;10.386;2024-02-21T05:46:59;10.20;99.90
2625;DHT22;1322;53.256;10.386;2024-02-21T05:49:24;10.30;99.90
2625;DHT22;1322;53.256;10.386;2024-02-21T05:51:50;10.40;99.90
2625;DHT22;1322;53.256;10.386;2024-02-21T05:54:15;10.40;99.90
2625;DHT22;1322;53.256;10.386;2024-02-21T05:56:45;10.40;99.90
2625;DHT22;1322;53.256;10.386;2024-02-21T05:59:11;10.40;99.90
2625;DHT22;1322;53.256;10.386;2024-02-21T06:01:36;10.30;99.90
2625;DHT22;1322;53.256;10.386;2024-02-21T06:04:02;10.20;99.90
2625;DHT22;1322;53.256;10.386;2024-02-21T06:06:28;10.20;99.90
2625;DHT22;1322;53.256;10.386;2024-02-21T06:08:53;10.30;99.90
2625;DHT22;1322;53.256;10.386;2024-02-21T06:11:19;10.20;99.90
2625;DHT22;1322;53.256;10.386;2024-02-21T06:13:44;10.20;99.90
2625;DHT22;1322;53.256;10.386;2024-02-21T06:16:10;10.20;99.90
2625;DHT22;1322;53.256;10.386;2024-02-21T06:18:36;10.30;99.90
2625;DHT22;1322;53.256;10.386;2024-02-21T06:21:03;10.30;99.90
2625;DHT22;1322;53.256;10.386;2024-02-21T06:23:29;10.30;99.90
2625;DHT22;1322;53.256;10.386;2024-02-21T06:25:55;10.30;99.90
2625;DHT22;1322;53.256;10.386;2024-02-21T06:28:21;10.30;99.90
2625;DHT22;1322;53.256;10.386;2024-02-21T06:30:46;10.30;99.90
2625;DHT22;1322;53.256;10.386;2024-02-21T06:33:12;10.40;99.90
2625;DHT22;1322;53.256;10.386;2024-02-21T06:35:37;10.50;99.90
2625;DHT22;1322;53.256;10.386;2024-02-21T06:38:06;10.50;99.90
2625;DHT22;1322;53.256;10.386;2024-02-21T06:40:33;10.50;99.90
2625;DHT22;1322;53.256;10.386;2024-02-21T06:43:04;10.50;99.90
2625;DHT22;1322;53.256;10.386;2024-02-21T06:45:29;10.60;99.90
2625;DHT22;1322;53.256;10.386;2024-02-21T06:47:55;10.60;99.90
2625;DHT22;1322;53.256;10.386;2024-02-21T06:50:21;10.60;99.90
2625;DHT22;1322;53.256;10.386;2024-02-21T06:52:46;10.50;99.90
2625;DHT22;1322;53.256;10.386;2024-02-21T06:55:12;10.50;99.90
2625;DHT22;1322;53.256;10.386;2024-02-21T06:57:38;10.40;99.90
2625;DHT22;1322;53.256;10.386;2024-02-21T07:00:04;10.30;99.90
2625;DHT22;1322;53.256;10.386;2024-02-21T07:02:33;10.30;99.90
2625;DHT22;1322;53.256;10.386;2024-02-21T07:04:59;10.30;99.90
2625;DHT22;1322;53.256;10.386;2024-02-21T07:07:25;10.30;99.90
2625;DHT22;1322;53.256;10.386;2024-02-21T07:09:50;10.30;99.90
2625;DHT22;1322;53.256;10.386;2024-02-21T07:12:17;10.40;99.90
2625;DHT22;1322;53.256;10.386;2024-02-21T07:14:42;10.50;99.90
2625;DHT22;1322;53.256;10.386;2024-02-21T07:17:08;10.50;99.90
2625;DHT22;1322;53.256;10.386;2024-02-21T07:19:33;10.50;99.90
2625;DHT22;1322;53.256;10.386;2024-02-21T07:22:01;10.50;99.90
2625;DHT22;1322;53.256;10.386;2024-02-21T07:24:26;10.60;99.90
2625;DHT22;1322;53.256;10.386;2024-02-21T07:26:52;10.70;99.90
2625;DHT22;1322;53.256;10.386;2024-02-21T07:29:18;10.60;99.90
2625;DHT22;1322;53.256;10.386;2024-02-21T07:31:44;10.80;99.90
2625;DHT22;1322;53.256;10.386;2024-02-21T07:34:10;10.70;99.90
2625;DHT22;1322;53.256;10.386;2024-02-21T07:36:36;10.80;99.90
2625;DHT22;1322;53.256;10.386;2024-02-21T07:39:03;10.80;99.90
2625;DHT22;1322;53.256;10.386;2024-02-21T07:41:30;10.80;99.90
2625;DHT22;1322;53.256;10.386;2024-02-21T07:43:56;10.80;99.90
2625;DHT22;1322;53.256;10.386;2024-02-21T07:46:22;10.80;99.90
2625;DHT22;1322;53.256;10.386;2024-02-21T07:48:48;10.70;99.90
2625;DHT22;1322;53.256;10.386;2024-02-21T07:51:14;10.70;99.90
2625;DHT22;1322;53.256;10.386;2024-02-21T07:53:43;10.90;99.90
2625;DHT22;1322;53.256;10.386;2024-02-21T07:56:14;10.80;99.90
2625;DHT22;1322;53.256;10.386;2024-02-21T07:58:40;10.90;99.90
2625;DHT22;1322;53.256;10.386;2024-02-21T08:01:06;11.00;99.90
2625;DHT22;1322;53.256;10.386;2024-02-21T08:03:32;11.10;99.90
2625;DHT22;1322;53.256;10.386;2024-02-21T08:05:57;11.10;99.90
2625;DHT22;1322;53.256;10.386;2024-02-21T08:08:23;11.20;99.90
2625;DHT22;1322;53.256;10.386;2024-02-21T08:10:50;11.40;99.90
2625;DHT22;1322;53.256;10.386;2024-02-21T08:13:16;11.50;99.90
2625;DHT22;1322;53.256;10.386;2024-02-21T08:15:41;11.50;99.90
2625;DHT22;1322;53.256;10.386;2024-02-21T08:18:08;11.40;99.90
2625;DHT22;1322;53.256;10.386;2024-02-21T08:20:33;11.40;99.90
2625;DHT22;1322;53.256;10.386;2024-02-21T08:22:59;11.40;99.90
2625;DHT22;1322;53.256;10.386;2024-02-21T08:25:25;11.40;99.90
2625;DHT22;1322;53.256;10.386;2024-02-21T08:27:50;11.50;99.90
2625;DHT22;1322;53.256;10.386;2024-02-21T08:30:17;11.50;99.90
2625;DHT22;1322;53.256;10.386;2024-02-21T08:32:43;11.50;99.90
2625;DHT22;1322;53.256;10.386;2024-02-21T08:35:09;11.60;99.90
2625;DHT22;1322;53.256;10.386;2024-02-21T08:37:34;11.60;99.90
2625;DHT22;1322;53.256;10.386;2024-02-21T08:40:00;11.80;99.90
2625;DHT22;1322;53.256;10.386;2024-02-21T08:42:35;11.80;99.90
2625;DHT22;1322;53.256;10.386;2024-02-21T08:45:00;11.70;99.90
2625;DHT22;1322;53.256;10.386;2024-02-21T08:47:26;11.70;99.90
2625;DHT22;1322;53.256;10.386;2024-02-21T08:49:52;11.70;99.90
2625;DHT22;1322;53.256;10.386;2024-02-21T08:52:18;11.60;99.90
2625;DHT22;1322;53.256;10.386;2024-02-21T08:54:43;11.70;99.90
2625;DHT22;1322;53.256;10.386;2024-02-21T08:57:09;11.70;99.90
2625;DHT22;1322;53.256;10.386;2024-02-21T08:59:35;11.80;99.90
2625;DHT22;1322;53.256;10.386;2024-02-21T09:02:00;11.80;99.90
2625;DHT22;1322;53.256;10.386;2024-02-21T09:04:28;11.90;99.90
2625;DHT22;1322;53.256;10.386;2024-02-21T09:06:54;11.90;99.90
2625;DHT22;1322;53.256;10.386;2024-02-21T09:09:20;12.00;99.90
2625;DHT22;1322;53.256;10.386;2024-02-21T09:11:46;12.20;99.90
2625;DHT22;1322;53.256;10.386;2024-02-21T09:14:11;12.30;99.90
2625;DHT22;1322;53.256;10.386;2024-02-21T09:16:37;12.20;99.90
2625;DHT22;1322;53.256;10.386;2024-02-21T09:19:03;12.10;99.90
2625;DHT22;1322;53.256;10.386;2024-02-21T09:21:28;12.10;99.90
2625;DHT22;1322;53.256;10.386;2024-02-21T09:23:54;12.20;99.90
2625;DHT22;1322;53.256;10.386;2024-02-21T09:26:20;12.20;99.90
2625;DHT22;1322;53.256;10.386;2024-02-21T09:28:45;12.20;99.90
2625;DHT22;1322;53.256;10.386;2024-02-21T09:31:11;12.10;99.90
2625;DHT22;1322;53.256;10.386;2024-02-21T09:33:37;12.20;99.90
2625;DHT22;1322;53.256;10.386;2024-02-21T09:36:03;12.20;99.90
2625;DHT22;1322;53.256;10.386;2024-02-21T09:38:31;12.20;99.90
2625;DHT22;1322;53.256;10.386;2024-02-21T09:41:17;12.20;99.90
2625;DHT22;1322;53.256;10.386;2024-02-21T09:43:43;12.10;99.90
2625;DHT22;1322;53.256;10.386;2024-02-21T09:46:16;12.10;99.90
2625;DHT22;1322;53.256;10.386;2024-02-21T09:51:15;12.10;99.90
2625;DHT22;1322;53.256;10.386;2024-02-21T09:53:42;12.20;99.90
2625;DHT22;1322;53.256;10.386;2024-02-21T09:56:08;12.10;99.90
2625;DHT22;1322;53.256;10.386;2024-02-21T09:58:34;11.90;99.90
2625;DHT22;1322;53.256;10.386;2024-02-21T10:01:00;11.90;99.90
2625;DHT22;1322;53.256;10.386;2024-02-21T10:03:26;11.80;99.90
2625;DHT22;1322;53.256;10.386;2024-02-21T10:05:51;11.70;99.90
2625;DHT22;1322;53.256;10.386;2024-02-21T10:08:18;11.70;99.90
2625;DHT22;1322;53.256;10.386;2024-02-21T10:10:46;11.80;99.90
2625;DHT22;1322;53.256;10.386;2024-02-21T10:13:25;11.80;99.90
2625;DHT22;1322;53.256;10.386;2024-02-21T10:16:06;11.80;99.90
2625;DHT22;1322;53.256;10.386;2024-02-21T10:18:32;11.60;99.90
2625;DHT22;1322;53.256;10.386;2024-02-21T10:21:05;11.60;99.90
2625;DHT22;1322;53.256;10.386;2024-02-21T10:23:45;11.50;99.90
2625;DHT22;1322;53.256;10.386;2024-02-21T10:26:12;11.60;99.90
2625;DHT22;1322;53.256;10.386;2024-02-21T10:28:38;11.60;99.90
2625;DHT22;1322;53.256;10.386;2024-02-21T10:31:11;11.70;99.90
2625;DHT22;1322;53.256;10.386;2024-02-21T10:33:54;11.70;99.90
2625;DHT22;1322;53.256;10.386;2024-02-21T10:36:19;11.90;99.90
2625;DHT22;1322;53.256;10.386;2024-02-21T10:38:45;12.20;99.90
2625;DHT22;1322;53.256;10.386;2024-02-21T10:41:14;12.30;99.90
2625;DHT22;1322;53.256;10.386;2024-02-21T10:43:40;12.50;99.90
2625;DHT22;1322;53.256;10.386;2024-02-21T10:46:07;12.60;99.90
2625;DHT22;1322;53.256;10.386;2024-02-21T10:48:43;12.50;99.90
2625;DHT22;1322;53.256;10.386;2024-02-21T10:51:19;12.40;99.90
2625;DHT22;1322;53.256;10.386;2024-02-21T10:56:28;12.60;99.90
2625;DHT22;1322;53.256;10.386;2024-02-21T10:58:54;12.40;99.90
2625;DHT22;1322;53.256;10.386;2024-02-21T11:01:22;12.30;99.90
2625;DHT22;1322;53.256;10.386;2024-02-21T11:03:53;12.30;99.90
2625;DHT22;1322;53.256;10.386;2024-02-21T11:06:20;12.30;99.90
2625;DHT22;1322;53.256;10.386;2024-02-21T11:08:47;12.40;99.90
2625;DHT22;1322;53.256;10.386;2024-02-21T11:11:13;12.40;99.90
2625;DHT22;1322;53.256;10.386;2024-02-21T11:13:47;12.60;99.90
2625;DHT22;1322;53.256;10.386;2024-02-21T11:16:23;12.70;99.90
2625;DHT22;1322;53.256;10.386;2024-02-21T11:18:49;12.60;99.90
2625;DHT22;1322;53.256;10.386;2024-02-21T11:21:15;12.60;99.90
2625;DHT22;1322;53.256;10.386;2024-02-21T11:23:41;12.40;99.90
2625;DHT22;1322;53.256;10.386;2024-02-21T11:26:10;12.40;99.90
2625;DHT22;1322;53.256;10.386;2024-02-21T11:28:44;12.40;99.90
2625;DHT22;1322;53.256;10.386;2024-02-21T11:31:14;12.40;99.90
2625;DHT22;1322;53.256;10.386;2024-02-21T11:33:40;12.20;99.90
2625;DHT22;1322;53.256;10.386;2024-02-21T11:36:08;12.20;99.90
2625;DHT22;1322;53.256;10.386;2024-02-21T11:38:34;12.30;99.90
2625;DHT22;1322;53.256;10.386;2024-02-21T11:40:59;12.20;99.90
2625;DHT22;1322;53.256;10.386;2024-02-21T11:43:25;11.90;99.90
2625;DHT22;1322;53.256;10.386;2024-02-21T11:45:58;11.80;99.90
2625;DHT22;1322;53.256;10.386;2024-02-21T11:48:24;11.70;99.90
2625;DHT22;1322;53.256;10.386;2024-02-21T11:50:56;11.70;99.90
2625;DHT22;1322;53.256;10.386;2024-02-21T11:53:22;11.70;99.90
2625;DHT22;1322;53.256;10.386;2024-02-21T11:55:48;11.70;99.90
2625;DHT22;1322;53.256;10.386;2024-02-21T11:58:15;11.60;99.90
2625;DHT22;1322;53.256;10.386;2024-02-21T12:00:41;11.40;99.90
2625;DHT22;1322;53.256;10.386;2024-02-21T12:03:07;11.40;99.90
2625;DHT22;1322;53.256;10.386;2024-02-21T12:05:33;11.50;99.90
2625;DHT22;1322;53.256;10.386;2024-02-21T12:07:59;11.60;99.90
2625;DHT22;1322;53.256;10.386;2024-02-21T12:10:26;11.50;99.90
2625;DHT22;1322;53.256;10.386;2024-02-21T12:12:53;11.60;99.90
2625;DHT22;1322;53.256;10.386;2024-02-21T12:15:20;11.60;99.90
2625;DHT22;1322;53.256;10.386;2024-02-21T12:17:46;11.40;99.90
2625;DHT22;1322;53.256;10.386;2024-02-21T12:20:12;11.50;99.90
2625;DHT22;1322;53.256;10.386;2024-02-21T12:22:38;11.60;99.90
2625;DHT22;1322;53.256;10.386;2024-02-21T12:25:17;11.70;99.90
2625;DHT22;1322;53.256;10.386;2024-02-21T12:27:46;11.70;99.90
2625;DHT22;1322;53.256;10.386;2024-02-21T12:30:12;11.70;99.90
2625;DHT22;1322;53.256;10.386;2024-02-21T12:32:38;11.80;99.90
2625;DHT22;1322;53.256;10.386;2024-02-21T12:35:04;11.90;99.90
2625;DHT22;1322;53.256;10.386;2024-02-21T12:37:30;11.90;99.90
2625;DHT22;1322;53.256;10.386;2024-02-21T12:39:56;12.10;99.90
2625;DHT22;1322;53.256;10.386;2024-02-21T12:42:21;12.20;99.90
2625;DHT22;1322;53.256;10.386;2024-02-21T12:44:49;12.30;99.90
2625;DHT22;1322;53.256;10.386;2024-02-21T12:47:14;12.30;99.90
2625;DHT22;1322;53.256;10.386;2024-02-21T12:49:40;12.40;99.90
2625;DHT22;1322;53.256;10.386;2024-02-21T12:52:05;12.50;99.90
2625;DHT22;1322;53.256;10.386;2024-02-21T12:54:31;12.50;99.90
2625;DHT22;1322;53.256;10.386;2024-02-21T12:56:57;12.40;99.90
2625;DHT22;1322;53.256;10.386;2024-02-21T12:59:22;12.40;99.90
2625;DHT22;1322;53.256;10.386;2024-02-21T13:01:48;12.30;99.90
2625;DHT22;1322;53.256;10.386;2024-02-21T13:04:14;12.30;99.90
2625;DHT22;1322;53.256;10.386;2024-02-21T13:06:39;12.40;99.90
2625;DHT22;1322;53.256;10.386;2024-02-21T13:09:05;12.30;99.90
2625;DHT22;1322;53.256;10.386;2024-02-21T13:11:34;12.40;99.90
2625;DHT22;1322;53.256;10.386;2024-02-21T13:14:00;12.50;99.90
2625;DHT22;1322;53.256;10.386;2024-02-21T13:16:25;12.60;99.90
2625;DHT22;1322;53.256;10.386;2024-02-21T13:18:54;12.80;99.90
2625;DHT22;1322;53.256;10.386;2024-02-21T13:21:19;12.70;99.90
2625;DHT22;1322;53.256;10.386;2024-02-21T13:23:45;12.80;99.90
2625;DHT22;1322;53.256;10.386;2024-02-21T13:26:11;12.90;99.90
2625;DHT22;1322;53.256;10.386;2024-02-21T13:28:38;12.90;99.90
2625;DHT22;1322;53.256;10.386;2024-02-21T13:31:03;13.00;99.90
2625;DHT22;1322;53.256;10.386;2024-02-21T13:33:29;12.90;99.90
2625;DHT22;1322;53.256;10.386;2024-02-21T13:35:55;12.80;99.90
2625;DHT22;1322;53.256;10.386;2024-02-21T13:38:20;12.80;99.90
2625;DHT22;1322;53.256;10.386;2024-02-21T13:40:46;12.70;99.90
2625;DHT22;1322;53.256;10.386;2024-02-21T13:43:12;12.70;99.90
2625;DHT22;1322;53.256;10.386;2024-02-21T13:45:39;12.70;99.90
2625;DHT22;1322;53.256;10.386;2024-02-21T13:48:07;12.70;99.90
2625;DHT22;1322;53.256;10.386;2024-02-21T13:50:36;12.70;99.90
2625;DHT22;1322;53.256;10.386;2024-02-21T13:53:08;12.60;99.90
2625;DHT22;1322;53.256;10.386;2024-02-21T13:55:34;12.60;99.90
2625;DHT22;1322;53.256;10.386;2024-02-21T13:58:00;12.60;99.90
2625;DHT22;1322;53.256;10.386;2024-02-21T14:00:26;12.60;99.90
2625;DHT22;1322;53.256;10.386;2024-02-21T14:02:52;12.70;99.90
2625;DHT22;1322;53.256;10.386;2024-02-21T14:05:19;12.70;99.90
2625;DHT22;1322;53.256;10.386;2024-02-21T14:07:45;12.70;99.90
2625;DHT22;1322;53.256;10.386;2024-02-21T14:10:11;12.80;99.90
2625;DHT22;1322;53.256;10.386;2024-02-21T14:12:36;12.80;99.90
2625;DHT22;1322;53.256;10.386;2024-02-21T14:15:04;12.80;99.90
2625;DHT22;1322;53.256;10.386;2024-02-21T14:17:30;12.70;99.90
2625;DHT22;1322;53.256;10.386;2024-02-21T14:19:56;12.50;99.90
2625;DHT22;1322;53.256;10.386;2024-02-21T14:22:21;12.50;99.90
2625;DHT22;1322;53.256;10.386;2024-02-21T14:24:47;12.60;99.90
2625;DHT22;1322;53.256;10.386;2024-02-21T14:27:12;12.60;99.90
2625;DHT22;1322;53.256;10.386;2024-02-21T14:29:39;12.60;99.90
2625;DHT22;1322;53.256;10.386;2024-02-21T14:32:04;12.50;99.90
2625;DHT22;1322;53.256;10.386;2024-02-21T14:34:31;12.60;99.90
2625;DHT22;1322;53.256;10.386;2024-02-21T14:36:56;12.70;99.90
2625;DHT22;1322;53.256;10.386;2024-02-21T14:39:22;12.80;99.90
2625;DHT22;1322;53.256;10.386;2024-02-21T14:41:48;12.80;99.90
2625;DHT22;1322;53.256;10.386;2024-02-21T14:44:14;12.80;99.90
2625;DHT22;1322;53.256;10.386;2024-02-21T14:46:39;12.60;99.90
2625;DHT22;1322;53.256;10.386;2024-02-21T14:49:05;12.70;99.90
2625;DHT22;1322;53.256;10.386;2024-02-21T14:51:33;12.70;99.90
2625;DHT22;1322;53.256;10.386;2024-02-21T14:53:59;12.70;99.90
2625;DHT22;1322;53.256;10.386;2024-02-21T14:56:28;12.80;99.90
2625;DHT22;1322;53.256;10.386;2024-02-21T14:58:53;12.70;99.90
2625;DHT22;1322;53.256;10.386;2024-02-21T15:01:19;12.60;99.90
2625;DHT22;1322;53.256;10.386;2024-02-21T15:03:44;12.50;99.90
2625;DHT22;1322;53.256;10.386;2024-02-21T15:06:10;12.50;99.90
2625;DHT22;1322;53.256;10.386;2024-02-21T15:08:37;12.30;99.90
2625;DHT22;1322;53.256;10.386;2024-02-21T15:11:03;12.30;99.90
2625;DHT22;1322;53.256;10.386;2024-02-21T15:13:29;12.20;99.90
2625;DHT22;1322;53.256;10.386;2024-02-21T15:15:55;12.10;99.90
2625;DHT22;1322;53.256;10.386;2024-02-21T15:18:21;12.10;99.90
2625;DHT22;1322;53.256;10.386;2024-02-21T15:20:47;12.20;99.90
2625;DHT22;1322;53.256;10.386;2024-02-21T15:23:12;12.10;99.90
2625;DHT22;1322;53.256;10.386;2024-02-21T15:25:38;12.00;99.90
2625;DHT22;1322;53.256;10.386;2024-02-21T15:28:04;11.90;99.90
2625;DHT22;1322;53.256;10.386;2024-02-21T15:30:30;11.90;99.90
2625;DHT22;1322;53.256;10.386;2024-02-21T15:32:58;11.90;99.90
2625;DHT22;1322;53.256;10.386;2024-02-21T15:35:30;11.80;99.90
2625;DHT22;1322;53.256;10.386;2024-02-21T15:37:57;11.80;99.90
2625;DHT22;1322;53.256;10.386;2024-02-21T15:40:23;11.90;99.90
2625;DHT22;1322;53.256;10.386;2024-02-21T15:42:49;11.80;99.90
2625;DHT22;1322;53.256;10.386;2024-02-21T15:45:15;11.70;99.90